EZY93JE EGGD-LTBS
Flight info
| Callsign | EZY93JE |
|---|---|
| Flight time | 3h 49m |
| Altitude | 37000 |
| Route | YORQI DCT NUCHU L607 ALHAD DCT MID UL612 VEULE DCT TEPRI DCT POGZI DCT GELTA DCT LUVAL DCT BEGAR DCT TRA DCT GAMSA DCT GEDSO DCT VEKEN DCT GORPA DCT VABEK UL603 OLOTA DCT RUGAS DCT RIKSO UP14 ODNOD UT491 SONUP |
| Aircraft | A320/M-SDE3FGHIRWY/LB1 |
Departure
| Time | 2026-05-05 09:17 |
|---|---|
| Airport | Bristol Airport (EGGD) |
Arrival
| Time | 2026-05-05 13:06 |
|---|---|
| Airport | Dalaman International Airport (LTBS) |
| Time | Latitude | Longitude | Altitude | Speed | Heading |
|---|---|---|---|---|---|
| 2026-05-05 09:08 | 51.38540 | -2.71609 | 612 ft | 0 kts | 358° |
| 2026-05-05 09:11 | 51.38535 | -2.71609 | 616 ft | 4 kts | 358° |
| 2026-05-05 09:11 | 51.38511 | -2.71607 | 621 ft | 2 kts | 358° |
| 2026-05-05 09:11 | 51.38489 | -2.71601 | 622 ft | 4 kts | 315° |
| 2026-05-05 09:12 | 51.38481 | -2.71569 | 622 ft | 2 kts | 266° |
| 2026-05-05 09:12 | 51.38480 | -2.71602 | 620 ft | 4 kts | 266° |
| 2026-05-05 09:12 | 51.38480 | -2.71616 | 622 ft | 1 kts | 266° |
| 2026-05-05 09:14 | 51.38480 | -2.71617 | 622 ft | 1 kts | 266° |
| 2026-05-05 09:14 | 51.38469 | -2.71658 | 611 ft | 4 kts | 203° |
| 2026-05-05 09:14 | 51.38437 | -2.71710 | 609 ft | 12 kts | 256° |
| 2026-05-05 09:14 | 51.38432 | -2.71917 | 606 ft | 24 kts | 271° |
| 2026-05-05 09:15 | 51.38426 | -2.72195 | 613 ft | 25 kts | 265° |
| 2026-05-05 09:15 | 51.38416 | -2.72452 | 612 ft | 22 kts | 265° |
| 2026-05-05 09:15 | 51.38405 | -2.72727 | 608 ft | 28 kts | 266° |
| 2026-05-05 09:15 | 51.38393 | -2.73058 | 605 ft | 30 kts | 266° |
| 2026-05-05 09:16 | 51.38350 | -2.73318 | 624 ft | 21 kts | 219° |
| 2026-05-05 09:16 | 51.38237 | -2.73318 | 631 ft | 14 kts | 149° |
| 2026-05-05 09:16 | 51.38215 | -2.73227 | 626 ft | 0 kts | 86° |
| 2026-05-05 09:16 | 51.38219 | -2.73143 | 628 ft | 31 kts | 86° |
| 2026-05-05 09:17 | 51.38250 | -2.72391 | 627 ft | 101 kts | 86° |
| 2026-05-05 09:17 | 51.38304 | -2.70965 | 755 ft | 142 kts | 85° |
| 2026-05-05 09:17 | 51.38341 | -2.69417 | 1525 ft | 139 kts | 84° |
| 2026-05-05 09:17 | 51.38358 | -2.67843 | 2126 ft | 147 kts | 83° |
| 2026-05-05 09:18 | 51.38420 | -2.66092 | 2442 ft | 169 kts | 82° |
| 2026-05-05 09:18 | 51.38495 | -2.64095 | 2712 ft | 191 kts | 83° |
| 2026-05-05 09:18 | 51.38579 | -2.61845 | 2946 ft | 215 kts | 82° |
| 2026-05-05 09:18 | 51.38672 | -2.59328 | 3296 ft | 239 kts | 84° |
| 2026-05-05 09:19 | 51.38906 | -2.56616 | 3855 ft | 250 kts | 64° |
| 2026-05-05 09:19 | 51.39947 | -2.54440 | 4598 ft | 250 kts | 32° |
| 2026-05-05 09:19 | 51.41455 | -2.52995 | 5406 ft | 256 kts | 27° |
| 2026-05-05 09:19 | 51.43023 | -2.51594 | 6265 ft | 260 kts | 27° |
| 2026-05-05 09:20 | 51.44613 | -2.50183 | 7115 ft | 263 kts | 27° |
| 2026-05-05 09:20 | 51.46208 | -2.48692 | 7882 ft | 269 kts | 29° |
| 2026-05-05 09:20 | 51.47817 | -2.47107 | 8689 ft | 273 kts | 29° |
| 2026-05-05 09:20 | 51.49436 | -2.45474 | 9499 ft | 278 kts | 31° |
| 2026-05-05 09:21 | 51.50940 | -2.43485 | 10199 ft | 286 kts | 51° |
| 2026-05-05 09:21 | 51.51811 | -2.40590 | 10909 ft | 294 kts | 76° |
| 2026-05-05 09:21 | 51.51873 | -2.37276 | 11468 ft | 308 kts | 94° |
| 2026-05-05 09:21 | 51.51660 | -2.33730 | 11677 ft | 331 kts | 95° |
| 2026-05-05 09:22 | 51.51392 | -2.29982 | 12122 ft | 343 kts | 96° |
| 2026-05-05 09:22 | 51.51103 | -2.26142 | 12824 ft | 348 kts | 96° |
| 2026-05-05 09:22 | 51.50811 | -2.22264 | 13538 ft | 352 kts | 96° |
| 2026-05-05 09:22 | 51.50524 | -2.18394 | 14175 ft | 356 kts | 96° |
| 2026-05-05 09:23 | 51.50237 | -2.14439 | 14799 ft | 358 kts | 95° |
| 2026-05-05 09:23 | 51.49956 | -2.10447 | 15426 ft | 361 kts | 96° |
| 2026-05-05 09:23 | 51.49675 | -2.06427 | 16057 ft | 364 kts | 96° |
| 2026-05-05 09:23 | 51.49391 | -2.02377 | 16696 ft | 367 kts | 97° |
| 2026-05-05 09:24 | 51.49106 | -1.98295 | 17334 ft | 369 kts | 97° |
| 2026-05-05 09:24 | 51.48817 | -1.94188 | 17937 ft | 372 kts | 97° |
| 2026-05-05 09:24 | 51.48523 | -1.90043 | 18479 ft | 376 kts | 97° |
| 2026-05-05 09:24 | 51.48226 | -1.85862 | 18981 ft | 379 kts | 97° |
| 2026-05-05 09:25 | 51.47922 | -1.81644 | 19480 ft | 382 kts | 98° |
| 2026-05-05 09:25 | 51.47611 | -1.77396 | 19983 ft | 385 kts | 97° |
| 2026-05-05 09:25 | 51.47295 | -1.73119 | 20489 ft | 387 kts | 97° |
| 2026-05-05 09:25 | 51.46975 | -1.68817 | 20967 ft | 390 kts | 98° |
| 2026-05-05 09:26 | 51.46469 | -1.64540 | 21442 ft | 392 kts | 103° |
| 2026-05-05 09:26 | 51.45883 | -1.60258 | 21938 ft | 394 kts | 103° |
| 2026-05-05 09:26 | 51.45296 | -1.55949 | 22412 ft | 397 kts | 103° |
| 2026-05-05 09:26 | 51.44706 | -1.51616 | 22853 ft | 400 kts | 104° |
| 2026-05-05 09:27 | 51.44112 | -1.47252 | 23328 ft | 402 kts | 104° |
| 2026-05-05 09:27 | 51.43514 | -1.42861 | 23746 ft | 405 kts | 104° |
| 2026-05-05 09:27 | 51.42906 | -1.38433 | 24095 ft | 408 kts | 104° |
| 2026-05-05 09:27 | 51.42292 | -1.33983 | 24459 ft | 411 kts | 104° |
| 2026-05-05 09:28 | 51.41666 | -1.29501 | 24835 ft | 413 kts | 104° |
| 2026-05-05 09:28 | 51.41033 | -1.24993 | 25207 ft | 416 kts | 105° |
| 2026-05-05 09:28 | 51.40335 | -1.20494 | 25562 ft | 417 kts | 110° |
| 2026-05-05 09:28 | 51.39226 | -1.16214 | 25913 ft | 416 kts | 120° |
| 2026-05-05 09:29 | 51.37677 | -1.12317 | 26256 ft | 415 kts | 130° |
| 2026-05-05 09:29 | 51.35741 | -1.08906 | 26609 ft | 414 kts | 139° |
| 2026-05-05 09:29 | 51.33658 | -1.05714 | 26971 ft | 415 kts | 139° |
| 2026-05-05 09:29 | 51.31574 | -1.02514 | 27397 ft | 415 kts | 139° |
| 2026-05-05 09:30 | 51.29491 | -0.99308 | 27822 ft | 416 kts | 139° |
| 2026-05-05 09:30 | 51.27409 | -0.96102 | 28203 ft | 417 kts | 139° |
| 2026-05-05 09:30 | 51.25312 | -0.92878 | 28496 ft | 420 kts | 139° |
| 2026-05-05 09:30 | 51.23200 | -0.89635 | 28767 ft | 423 kts | 139° |
| 2026-05-05 09:31 | 51.21072 | -0.86373 | 29072 ft | 425 kts | 139° |
| 2026-05-05 09:31 | 51.18962 | -0.83145 | 29378 ft | 427 kts | 139° |
| 2026-05-05 09:31 | 51.16812 | -0.79863 | 29686 ft | 429 kts | 139° |
| 2026-05-05 09:31 | 51.14650 | -0.76571 | 29988 ft | 430 kts | 140° |
| 2026-05-05 09:32 | 51.12482 | -0.73275 | 30241 ft | 432 kts | 139° |
| 2026-05-05 09:32 | 51.10224 | -0.70125 | 30480 ft | 430 kts | 147° |
| 2026-05-05 09:32 | 51.07765 | -0.67399 | 30714 ft | 432 kts | 148° |
| 2026-05-05 09:32 | 51.05289 | -0.64672 | 30922 ft | 434 kts | 148° |
| 2026-05-05 09:33 | 51.02805 | -0.61942 | 31192 ft | 435 kts | 148° |
| 2026-05-05 09:33 | 51.00318 | -0.59213 | 31502 ft | 434 kts | 148° |
| 2026-05-05 09:33 | 50.97828 | -0.56490 | 31789 ft | 435 kts | 148° |
| 2026-05-05 09:33 | 50.95334 | -0.53771 | 32082 ft | 435 kts | 148° |
| 2026-05-05 09:34 | 50.92837 | -0.51054 | 32379 ft | 435 kts | 148° |
| 2026-05-05 09:34 | 50.90342 | -0.48333 | 32668 ft | 436 kts | 148° |
| 2026-05-05 09:34 | 50.87846 | -0.45608 | 32960 ft | 436 kts | 148° |
| 2026-05-05 09:34 | 50.85349 | -0.42882 | 33282 ft | 436 kts | 148° |
| 2026-05-05 09:35 | 50.82852 | -0.40165 | 33597 ft | 436 kts | 148° |
| 2026-05-05 09:35 | 50.77849 | -0.34749 | 34149 ft | 436 kts | 148° |
| 2026-05-05 09:35 | 50.75341 | -0.32040 | 34379 ft | 437 kts | 148° |
| 2026-05-05 09:36 | 50.72831 | -0.29333 | 34595 ft | 437 kts | 148° |
| 2026-05-05 09:36 | 50.70318 | -0.26623 | 34823 ft | 438 kts | 148° |
| 2026-05-05 09:36 | 50.67806 | -0.23909 | 35038 ft | 438 kts | 148° |
| 2026-05-05 09:36 | 50.65286 | -0.21193 | 35247 ft | 439 kts | 148° |
| 2026-05-05 09:37 | 50.62765 | -0.18487 | 35476 ft | 438 kts | 148° |
| 2026-05-05 09:37 | 50.60243 | -0.15785 | 35697 ft | 438 kts | 148° |
| 2026-05-05 09:37 | 50.57722 | -0.13084 | 35900 ft | 438 kts | 148° |
| 2026-05-05 09:37 | 50.55204 | -0.10382 | 36114 ft | 439 kts | 148° |
| 2026-05-05 09:38 | 50.52680 | -0.07676 | 36294 ft | 439 kts | 148° |
| 2026-05-05 09:38 | 50.50152 | -0.04975 | 36482 ft | 439 kts | 148° |
| 2026-05-05 09:38 | 50.47621 | -0.02278 | 36664 ft | 440 kts | 148° |
| 2026-05-05 09:38 | 50.45089 | 0.00416 | 36843 ft | 440 kts | 148° |
| 2026-05-05 09:39 | 50.40057 | 0.05760 | 36962 ft | 439 kts | 148° |
| 2026-05-05 09:39 | 50.35014 | 0.11104 | 36958 ft | 437 kts | 148° |
| 2026-05-05 09:40 | 50.29980 | 0.16428 | 36954 ft | 437 kts | 148° |
| 2026-05-05 09:40 | 50.24945 | 0.21741 | 36956 ft | 437 kts | 148° |
| 2026-05-05 09:41 | 50.19908 | 0.27040 | 36950 ft | 436 kts | 148° |
| 2026-05-05 09:41 | 50.14857 | 0.32271 | 36960 ft | 435 kts | 149° |
| 2026-05-05 09:42 | 50.09794 | 0.37432 | 36961 ft | 434 kts | 149° |
| 2026-05-05 09:42 | 50.04740 | 0.42579 | 36949 ft | 434 kts | 149° |
| 2026-05-05 09:43 | 50.00545 | 0.46862 | 36942 ft | 434 kts | 149° |
| 2026-05-05 09:43 | 49.95506 | 0.52006 | 36950 ft | 433 kts | 149° |
| 2026-05-05 09:44 | 49.90473 | 0.57132 | 36950 ft | 432 kts | 149° |
| 2026-05-05 09:44 | 49.85548 | 0.62450 | 36944 ft | 433 kts | 140° |
| 2026-05-05 09:45 | 49.81396 | 0.69236 | 36939 ft | 434 kts | 135° |
| 2026-05-05 09:45 | 49.77330 | 0.76152 | 36927 ft | 434 kts | 135° |
| 2026-05-05 09:46 | 49.73255 | 0.83045 | 36938 ft | 434 kts | 135° |
| 2026-05-05 09:46 | 49.69173 | 0.89916 | 36930 ft | 434 kts | 135° |
| 2026-05-05 09:47 | 49.67340 | 0.93616 | 36927 ft | 437 kts | 121° |
| 2026-05-05 09:47 | 49.66002 | 0.97844 | 36924 ft | 439 kts | 118° |
| 2026-05-05 09:47 | 49.63429 | 1.06382 | 36917 ft | 439 kts | 118° |
| 2026-05-05 09:48 | 49.60860 | 1.14918 | 36923 ft | 439 kts | 118° |
| 2026-05-05 09:48 | 49.58278 | 1.23447 | 36920 ft | 439 kts | 118° |
| 2026-05-05 09:49 | 49.55688 | 1.31965 | 36919 ft | 439 kts | 118° |
| 2026-05-05 09:49 | 49.53090 | 1.40473 | 36909 ft | 439 kts | 118° |
| 2026-05-05 09:50 | 49.50480 | 1.48978 | 36909 ft | 439 kts | 118° |
| 2026-05-05 09:50 | 49.47887 | 1.57403 | 36915 ft | 439 kts | 118° |
| 2026-05-05 09:51 | 49.45276 | 1.65879 | 36908 ft | 438 kts | 118° |
| 2026-05-05 09:51 | 49.42657 | 1.74328 | 36903 ft | 438 kts | 118° |
| 2026-05-05 09:52 | 49.40036 | 1.82775 | 36884 ft | 438 kts | 118° |
| 2026-05-05 09:52 | 49.37412 | 1.91212 | 36895 ft | 438 kts | 118° |
| 2026-05-05 09:53 | 49.34778 | 1.99625 | 36896 ft | 437 kts | 118° |
| 2026-05-05 09:53 | 49.32134 | 2.08027 | 36895 ft | 437 kts | 119° |
| 2026-05-05 09:54 | 49.29491 | 2.16415 | 36896 ft | 437 kts | 118° |
| 2026-05-05 09:54 | 49.26848 | 2.24799 | 36879 ft | 437 kts | 119° |
| 2026-05-05 09:55 | 49.24197 | 2.33164 | 36892 ft | 436 kts | 119° |
| 2026-05-05 09:55 | 49.21539 | 2.41502 | 36879 ft | 436 kts | 119° |
| 2026-05-05 09:56 | 49.18876 | 2.49819 | 36877 ft | 435 kts | 119° |
| 2026-05-05 09:56 | 49.16221 | 2.58135 | 36875 ft | 435 kts | 119° |
| 2026-05-05 09:57 | 49.13562 | 2.66442 | 36854 ft | 435 kts | 119° |
| 2026-05-05 09:57 | 49.10889 | 2.74727 | 36868 ft | 435 kts | 119° |
| 2026-05-05 09:58 | 49.08205 | 2.83007 | 36879 ft | 435 kts | 120° |
| 2026-05-05 09:58 | 49.05518 | 2.91271 | 36880 ft | 435 kts | 120° |
| 2026-05-05 09:59 | 49.02835 | 2.99531 | 36871 ft | 435 kts | 119° |
| 2026-05-05 09:59 | 49.00147 | 3.07779 | 36853 ft | 434 kts | 119° |
| 2026-05-05 10:00 | 48.97446 | 3.16008 | 36855 ft | 434 kts | 120° |
| 2026-05-05 10:00 | 48.94746 | 3.24229 | 36858 ft | 434 kts | 120° |
| 2026-05-05 10:01 | 48.92034 | 3.32442 | 36860 ft | 434 kts | 120° |
| 2026-05-05 10:01 | 48.89314 | 3.40638 | 36860 ft | 434 kts | 120° |
| 2026-05-05 10:02 | 48.86591 | 3.48831 | 36861 ft | 434 kts | 120° |
| 2026-05-05 10:02 | 48.83867 | 3.57020 | 36839 ft | 434 kts | 120° |
| 2026-05-05 10:03 | 48.81154 | 3.65139 | 36841 ft | 434 kts | 120° |
| 2026-05-05 10:03 | 48.78415 | 3.73309 | 36843 ft | 434 kts | 120° |
| 2026-05-05 10:04 | 48.75669 | 3.81461 | 36850 ft | 434 kts | 120° |
| 2026-05-05 10:04 | 48.72917 | 3.89617 | 36852 ft | 435 kts | 120° |
| 2026-05-05 10:05 | 48.70166 | 3.97767 | 36854 ft | 434 kts | 120° |
| 2026-05-05 10:05 | 48.67412 | 4.05900 | 36855 ft | 434 kts | 120° |
| 2026-05-05 10:06 | 48.64647 | 4.14022 | 36854 ft | 434 kts | 120° |
| 2026-05-05 10:06 | 48.61874 | 4.22126 | 36852 ft | 434 kts | 120° |
| 2026-05-05 10:07 | 48.59099 | 4.30224 | 36850 ft | 434 kts | 120° |
| 2026-05-05 10:07 | 48.56312 | 4.38315 | 36832 ft | 434 kts | 120° |
| 2026-05-05 10:08 | 48.53520 | 4.46407 | 36827 ft | 435 kts | 120° |
| 2026-05-05 10:08 | 48.50727 | 4.54500 | 36830 ft | 435 kts | 120° |
| 2026-05-05 10:09 | 48.47925 | 4.62591 | 36836 ft | 436 kts | 121° |
| 2026-05-05 10:09 | 48.45109 | 4.70678 | 36841 ft | 436 kts | 121° |
| 2026-05-05 10:10 | 48.42302 | 4.78705 | 36827 ft | 436 kts | 121° |
| 2026-05-05 10:10 | 48.39474 | 4.86782 | 36838 ft | 436 kts | 121° |
| 2026-05-05 10:11 | 48.36634 | 4.94859 | 36840 ft | 437 kts | 121° |
| 2026-05-05 10:11 | 48.33787 | 5.02931 | 36852 ft | 437 kts | 121° |
| 2026-05-05 10:12 | 48.30936 | 5.10986 | 36845 ft | 437 kts | 121° |
| 2026-05-05 10:12 | 48.28768 | 5.19536 | 36844 ft | 444 kts | 105° |
| 2026-05-05 10:13 | 48.27444 | 5.28588 | 36849 ft | 444 kts | 106° |
| 2026-05-05 10:13 | 48.26100 | 5.37629 | 36853 ft | 444 kts | 106° |
| 2026-05-05 10:14 | 48.24741 | 5.46663 | 36856 ft | 444 kts | 106° |
| 2026-05-05 10:14 | 48.23378 | 5.55698 | 36865 ft | 444 kts | 106° |
| 2026-05-05 10:15 | 48.22014 | 5.64737 | 36856 ft | 444 kts | 107° |
| 2026-05-05 10:15 | 48.20644 | 5.73771 | 36868 ft | 445 kts | 107° |
| 2026-05-05 10:16 | 48.19266 | 5.82746 | 36877 ft | 445 kts | 107° |
| 2026-05-05 10:16 | 48.17871 | 5.91778 | 36883 ft | 445 kts | 107° |
| 2026-05-05 10:17 | 48.16468 | 6.00868 | 36869 ft | 445 kts | 107° |
| 2026-05-05 10:17 | 48.15065 | 6.09898 | 36874 ft | 445 kts | 107° |
| 2026-05-05 10:18 | 48.13647 | 6.18930 | 36884 ft | 446 kts | 107° |
| 2026-05-05 10:18 | 48.12231 | 6.27908 | 36893 ft | 446 kts | 107° |
| 2026-05-05 10:19 | 48.10804 | 6.36935 | 36885 ft | 446 kts | 107° |
| 2026-05-05 10:19 | 48.09372 | 6.45964 | 36867 ft | 446 kts | 108° |
| 2026-05-05 10:20 | 48.07932 | 6.54983 | 36876 ft | 446 kts | 108° |
| 2026-05-05 10:20 | 48.06479 | 6.63988 | 36881 ft | 445 kts | 108° |
| 2026-05-05 10:21 | 48.05026 | 6.72987 | 36881 ft | 445 kts | 108° |
| 2026-05-05 10:21 | 48.03580 | 6.81914 | 36859 ft | 445 kts | 108° |
| 2026-05-05 10:22 | 48.02114 | 6.90885 | 36869 ft | 445 kts | 108° |
| 2026-05-05 10:22 | 48.00634 | 6.99848 | 36876 ft | 445 kts | 108° |
| 2026-05-05 10:23 | 47.99153 | 7.08806 | 36877 ft | 445 kts | 108° |
| 2026-05-05 10:23 | 47.97666 | 7.17772 | 36883 ft | 445 kts | 108° |
| 2026-05-05 10:24 | 47.96168 | 7.26730 | 36868 ft | 445 kts | 108° |
| 2026-05-05 10:24 | 47.94666 | 7.35685 | 36874 ft | 445 kts | 108° |
| 2026-05-05 10:25 | 47.93159 | 7.44628 | 36879 ft | 445 kts | 108° |
| 2026-05-05 10:25 | 47.91642 | 7.53560 | 36879 ft | 444 kts | 108° |
| 2026-05-05 10:26 | 47.89839 | 7.62322 | 36878 ft | 440 kts | 115° |
| 2026-05-05 10:26 | 47.87676 | 7.70854 | 36872 ft | 440 kts | 115° |
| 2026-05-05 10:27 | 47.85506 | 7.79391 | 36873 ft | 441 kts | 115° |
| 2026-05-05 10:27 | 47.83336 | 7.87929 | 36876 ft | 441 kts | 115° |
| 2026-05-05 10:28 | 47.81161 | 7.96461 | 36882 ft | 441 kts | 115° |
| 2026-05-05 10:28 | 47.78972 | 8.04991 | 36881 ft | 441 kts | 115° |
| 2026-05-05 10:29 | 47.76784 | 8.13517 | 36887 ft | 442 kts | 115° |
| 2026-05-05 10:29 | 47.74583 | 8.22038 | 36890 ft | 442 kts | 115° |
| 2026-05-05 10:30 | 47.72391 | 8.30492 | 36896 ft | 442 kts | 115° |
| 2026-05-05 10:30 | 47.70169 | 8.38989 | 36888 ft | 441 kts | 115° |
| 2026-05-05 10:31 | 47.67982 | 8.47511 | 36869 ft | 443 kts | 114° |
| 2026-05-05 10:31 | 47.66021 | 8.56194 | 36874 ft | 445 kts | 112° |
| 2026-05-05 10:32 | 47.64456 | 8.63463 | 36878 ft | 445 kts | 112° |
| 2026-05-05 10:32 | 47.62515 | 8.72240 | 36881 ft | 445 kts | 112° |
| 2026-05-05 10:33 | 47.60544 | 8.80855 | 36886 ft | 444 kts | 113° |
| 2026-05-05 10:33 | 47.58538 | 8.89517 | 36874 ft | 445 kts | 113° |
| 2026-05-05 10:34 | 47.56532 | 8.98192 | 36879 ft | 445 kts | 113° |
| 2026-05-05 10:34 | 47.54531 | 9.06866 | 36877 ft | 445 kts | 113° |
| 2026-05-05 10:35 | 47.52529 | 9.15530 | 36880 ft | 445 kts | 113° |
| 2026-05-05 10:35 | 47.50509 | 9.24192 | 36857 ft | 445 kts | 113° |
| 2026-05-05 10:36 | 47.48482 | 9.32847 | 36863 ft | 446 kts | 113° |
| 2026-05-05 10:36 | 47.46447 | 9.41500 | 36875 ft | 446 kts | 113° |
| 2026-05-05 10:37 | 47.44403 | 9.50155 | 36880 ft | 446 kts | 113° |
| 2026-05-05 10:37 | 47.42358 | 9.58806 | 36883 ft | 446 kts | 113° |
| 2026-05-05 10:38 | 47.40508 | 9.67567 | 36867 ft | 450 kts | 105° |
| 2026-05-05 10:38 | 47.39275 | 9.76627 | 36865 ft | 450 kts | 105° |
| 2026-05-05 10:39 | 47.38021 | 9.85685 | 36864 ft | 450 kts | 105° |
| 2026-05-05 10:39 | 47.36754 | 9.94741 | 36853 ft | 451 kts | 105° |
| 2026-05-05 10:40 | 47.35478 | 10.03809 | 36839 ft | 452 kts | 105° |
| 2026-05-05 10:40 | 47.34195 | 10.12910 | 36849 ft | 454 kts | 105° |
| 2026-05-05 10:41 | 47.32896 | 10.22021 | 36857 ft | 454 kts | 105° |
| 2026-05-05 10:41 | 47.31588 | 10.31137 | 36866 ft | 456 kts | 105° |
| 2026-05-05 10:42 | 47.29614 | 10.44826 | 36853 ft | 455 kts | 105° |
| 2026-05-05 10:43 | 47.28291 | 10.53944 | 36861 ft | 455 kts | 105° |
| 2026-05-05 10:43 | 47.26959 | 10.63054 | 36867 ft | 455 kts | 105° |
| 2026-05-05 10:44 | 47.25629 | 10.72159 | 36866 ft | 455 kts | 106° |
| 2026-05-05 10:44 | 47.24281 | 10.81253 | 36845 ft | 455 kts | 105° |
| 2026-05-05 10:45 | 47.22920 | 10.90340 | 36850 ft | 455 kts | 105° |
| 2026-05-05 10:45 | 47.21559 | 10.99437 | 36862 ft | 455 kts | 105° |
| 2026-05-05 10:46 | 47.20193 | 11.08529 | 36866 ft | 455 kts | 106° |
| 2026-05-05 10:46 | 47.18824 | 11.17550 | 36870 ft | 455 kts | 106° |
| 2026-05-05 10:47 | 47.17435 | 11.26692 | 36847 ft | 455 kts | 105° |
| 2026-05-05 10:47 | 47.16062 | 11.35705 | 36850 ft | 455 kts | 106° |
| 2026-05-05 10:48 | 47.14667 | 11.44784 | 36859 ft | 456 kts | 105° |
| 2026-05-05 10:48 | 47.13263 | 11.53863 | 36867 ft | 456 kts | 106° |
| 2026-05-05 10:49 | 47.11836 | 11.63008 | 36869 ft | 456 kts | 106° |
| 2026-05-05 10:49 | 47.10409 | 11.72087 | 36893 ft | 457 kts | 107° |
| 2026-05-05 10:50 | 47.08984 | 11.81124 | 36896 ft | 458 kts | 106° |
| 2026-05-05 10:50 | 47.07076 | 11.89967 | 36899 ft | 452 kts | 120° |
| 2026-05-05 10:51 | 47.04311 | 11.98240 | 36904 ft | 452 kts | 120° |
| 2026-05-05 10:51 | 47.01549 | 12.06509 | 36923 ft | 452 kts | 120° |
| 2026-05-05 10:52 | 46.98773 | 12.14775 | 36927 ft | 452 kts | 120° |
| 2026-05-05 10:52 | 46.95984 | 12.23038 | 36985 ft | 453 kts | 120° |
| 2026-05-05 10:53 | 46.93198 | 12.31296 | 37006 ft | 453 kts | 120° |
| 2026-05-05 10:53 | 46.90403 | 12.39546 | 37001 ft | 453 kts | 120° |
| 2026-05-05 10:54 | 46.87605 | 12.47782 | 36997 ft | 453 kts | 120° |
| 2026-05-05 10:54 | 46.84791 | 12.56013 | 37005 ft | 453 kts | 120° |
| 2026-05-05 10:55 | 46.81973 | 12.64235 | 37002 ft | 453 kts | 120° |
| 2026-05-05 10:55 | 46.79153 | 12.72456 | 36973 ft | 453 kts | 120° |
| 2026-05-05 10:56 | 46.76325 | 12.80681 | 36993 ft | 454 kts | 120° |
| 2026-05-05 10:56 | 46.73513 | 12.88827 | 36999 ft | 452 kts | 120° |
| 2026-05-05 10:57 | 46.70671 | 12.97015 | 37011 ft | 454 kts | 120° |
| 2026-05-05 10:57 | 46.67824 | 13.05200 | 37008 ft | 453 kts | 120° |
| 2026-05-05 10:58 | 46.64977 | 13.13376 | 37008 ft | 453 kts | 120° |
| 2026-05-05 10:58 | 46.62123 | 13.21530 | 37011 ft | 452 kts | 120° |
| 2026-05-05 10:59 | 46.59262 | 13.29680 | 37022 ft | 453 kts | 120° |
| 2026-05-05 10:59 | 46.56396 | 13.37835 | 37015 ft | 453 kts | 120° |
| 2026-05-05 11:00 | 46.53398 | 13.45877 | 37008 ft | 453 kts | 122° |
| 2026-05-05 11:00 | 46.50263 | 13.53802 | 37005 ft | 453 kts | 123° |
| 2026-05-05 11:01 | 46.47115 | 13.61722 | 37028 ft | 453 kts | 123° |
| 2026-05-05 11:01 | 46.44012 | 13.69670 | 37020 ft | 453 kts | 123° |
| 2026-05-05 11:02 | 46.40909 | 13.77635 | 37000 ft | 454 kts | 123° |
| 2026-05-05 11:02 | 46.37794 | 13.85594 | 37002 ft | 454 kts | 122° |
| 2026-05-05 11:03 | 46.34668 | 13.93546 | 37015 ft | 455 kts | 123° |
| 2026-05-05 11:03 | 46.31525 | 14.01488 | 37019 ft | 455 kts | 123° |
| 2026-05-05 11:04 | 46.28403 | 14.09380 | 37028 ft | 455 kts | 123° |
| 2026-05-05 11:04 | 46.25250 | 14.17318 | 37033 ft | 455 kts | 123° |
| 2026-05-05 11:05 | 46.22097 | 14.25240 | 37037 ft | 455 kts | 123° |
| 2026-05-05 11:05 | 46.18942 | 14.33143 | 37037 ft | 454 kts | 123° |
| 2026-05-05 11:06 | 46.15779 | 14.41035 | 37036 ft | 454 kts | 123° |
| 2026-05-05 11:06 | 46.12615 | 14.48923 | 37032 ft | 454 kts | 123° |
| 2026-05-05 11:07 | 46.09440 | 14.56801 | 37035 ft | 454 kts | 123° |
| 2026-05-05 11:07 | 46.06264 | 14.64666 | 37038 ft | 454 kts | 123° |
| 2026-05-05 11:08 | 46.03075 | 14.72519 | 37044 ft | 455 kts | 123° |
| 2026-05-05 11:08 | 45.99886 | 14.80373 | 37029 ft | 455 kts | 123° |
| 2026-05-05 11:09 | 45.96688 | 14.88220 | 37028 ft | 455 kts | 123° |
| 2026-05-05 11:09 | 45.93482 | 14.96063 | 37035 ft | 455 kts | 123° |
| 2026-05-05 11:10 | 45.90272 | 15.03904 | 37039 ft | 455 kts | 123° |
| 2026-05-05 11:10 | 45.87059 | 15.11736 | 37049 ft | 455 kts | 123° |
| 2026-05-05 11:11 | 45.83835 | 15.19563 | 37034 ft | 456 kts | 123° |
| 2026-05-05 11:11 | 45.80602 | 15.27381 | 37038 ft | 456 kts | 123° |
| 2026-05-05 11:12 | 45.77373 | 15.35134 | 37034 ft | 456 kts | 124° |
| 2026-05-05 11:12 | 45.73911 | 15.42726 | 37032 ft | 455 kts | 127° |
| 2026-05-05 11:13 | 45.70268 | 15.50126 | 37033 ft | 455 kts | 128° |
| 2026-05-05 11:13 | 45.66618 | 15.57515 | 37023 ft | 455 kts | 128° |
| 2026-05-05 11:14 | 45.63016 | 15.64954 | 37035 ft | 455 kts | 127° |
| 2026-05-05 11:14 | 45.59424 | 15.72404 | 37038 ft | 455 kts | 127° |
| 2026-05-05 11:15 | 45.55822 | 15.79834 | 37024 ft | 455 kts | 127° |
| 2026-05-05 11:15 | 45.52204 | 15.87251 | 37022 ft | 455 kts | 127° |
| 2026-05-05 11:16 | 45.48583 | 15.94657 | 37022 ft | 456 kts | 127° |
| 2026-05-05 11:16 | 45.44951 | 16.02062 | 37020 ft | 456 kts | 127° |
| 2026-05-05 11:17 | 45.41319 | 16.09463 | 37009 ft | 456 kts | 127° |
| 2026-05-05 11:17 | 45.37680 | 16.16850 | 37000 ft | 456 kts | 127° |
| 2026-05-05 11:18 | 45.34030 | 16.24241 | 37002 ft | 457 kts | 127° |
| 2026-05-05 11:18 | 45.30989 | 16.30383 | 37003 ft | 457 kts | 128° |
| 2026-05-05 11:19 | 45.27326 | 16.37771 | 37012 ft | 457 kts | 128° |
| 2026-05-05 11:19 | 45.23660 | 16.45154 | 36999 ft | 458 kts | 127° |
| 2026-05-05 11:20 | 45.19980 | 16.52533 | 37001 ft | 459 kts | 127° |
| 2026-05-05 11:20 | 45.16289 | 16.59916 | 36998 ft | 459 kts | 127° |
| 2026-05-05 11:21 | 45.12602 | 16.67295 | 36991 ft | 459 kts | 128° |
| 2026-05-05 11:21 | 45.08897 | 16.74664 | 36988 ft | 460 kts | 128° |
| 2026-05-05 11:22 | 45.05176 | 16.82026 | 36987 ft | 460 kts | 128° |
| 2026-05-05 11:22 | 45.01448 | 16.89398 | 36989 ft | 461 kts | 128° |
| 2026-05-05 11:23 | 44.97719 | 16.96761 | 36995 ft | 461 kts | 128° |
| 2026-05-05 11:23 | 44.93984 | 17.04124 | 36996 ft | 461 kts | 128° |
| 2026-05-05 11:24 | 44.90252 | 17.11483 | 36996 ft | 461 kts | 128° |
| 2026-05-05 11:24 | 44.86504 | 17.18833 | 37000 ft | 461 kts | 128° |
| 2026-05-05 11:25 | 44.82743 | 17.26163 | 36991 ft | 462 kts | 128° |
| 2026-05-05 11:25 | 44.78984 | 17.33498 | 36996 ft | 462 kts | 128° |
| 2026-05-05 11:26 | 44.75222 | 17.40837 | 36996 ft | 462 kts | 128° |
| 2026-05-05 11:26 | 44.71451 | 17.48162 | 36998 ft | 463 kts | 128° |
| 2026-05-05 11:27 | 44.67664 | 17.55473 | 37001 ft | 463 kts | 128° |
| 2026-05-05 11:27 | 44.63876 | 17.62778 | 37005 ft | 463 kts | 128° |
| 2026-05-05 11:28 | 44.60082 | 17.70077 | 37010 ft | 463 kts | 128° |
| 2026-05-05 11:28 | 44.56277 | 17.77372 | 36999 ft | 463 kts | 128° |
| 2026-05-05 11:29 | 44.52466 | 17.84673 | 37002 ft | 464 kts | 128° |
| 2026-05-05 11:29 | 44.48647 | 17.91971 | 37008 ft | 464 kts | 128° |
| 2026-05-05 11:30 | 44.44850 | 17.99214 | 37007 ft | 465 kts | 128° |
| 2026-05-05 11:30 | 44.41012 | 18.06506 | 37009 ft | 466 kts | 128° |
| 2026-05-05 11:31 | 44.37162 | 18.13792 | 37023 ft | 466 kts | 128° |
| 2026-05-05 11:31 | 44.33313 | 18.21076 | 37026 ft | 466 kts | 128° |
| 2026-05-05 11:32 | 44.29463 | 18.28358 | 37023 ft | 466 kts | 128° |
| 2026-05-05 11:32 | 44.25602 | 18.35626 | 37018 ft | 467 kts | 128° |
| 2026-05-05 11:33 | 44.21726 | 18.42893 | 37018 ft | 467 kts | 128° |
| 2026-05-05 11:33 | 44.17842 | 18.50170 | 37021 ft | 468 kts | 128° |
| 2026-05-05 11:34 | 44.13957 | 18.57438 | 37032 ft | 468 kts | 128° |
| 2026-05-05 11:34 | 44.10058 | 18.64697 | 37036 ft | 468 kts | 129° |
| 2026-05-05 11:35 | 44.06153 | 18.71952 | 37040 ft | 468 kts | 128° |
| 2026-05-05 11:35 | 44.02243 | 18.79200 | 37045 ft | 469 kts | 128° |
| 2026-05-05 11:36 | 43.98332 | 18.86437 | 37026 ft | 469 kts | 129° |
| 2026-05-05 11:36 | 43.94406 | 18.93690 | 37033 ft | 470 kts | 129° |
| 2026-05-05 11:37 | 43.90465 | 19.00934 | 37033 ft | 471 kts | 129° |
| 2026-05-05 11:37 | 43.86517 | 19.08172 | 37031 ft | 471 kts | 128° |
| 2026-05-05 11:38 | 43.82594 | 19.15357 | 37034 ft | 471 kts | 128° |
| 2026-05-05 11:38 | 43.78635 | 19.22582 | 37034 ft | 471 kts | 129° |
| 2026-05-05 11:39 | 43.74668 | 19.29799 | 37040 ft | 471 kts | 129° |
| 2026-05-05 11:39 | 43.70700 | 19.37017 | 37041 ft | 472 kts | 128° |
| 2026-05-05 11:40 | 43.66722 | 19.44235 | 37031 ft | 472 kts | 129° |
| 2026-05-05 11:40 | 43.62733 | 19.51447 | 37032 ft | 473 kts | 129° |
| 2026-05-05 11:41 | 43.58736 | 19.58669 | 37035 ft | 473 kts | 129° |
| 2026-05-05 11:41 | 43.54732 | 19.65876 | 37041 ft | 474 kts | 128° |
| 2026-05-05 11:42 | 43.50720 | 19.73073 | 37050 ft | 474 kts | 128° |
| 2026-05-05 11:42 | 43.46701 | 19.80262 | 37054 ft | 474 kts | 128° |
| 2026-05-05 11:43 | 43.42686 | 19.87453 | 37041 ft | 474 kts | 129° |
| 2026-05-05 11:43 | 43.38652 | 19.94642 | 37045 ft | 475 kts | 129° |
| 2026-05-05 11:44 | 43.34626 | 20.01781 | 37055 ft | 476 kts | 129° |
| 2026-05-05 11:44 | 43.30571 | 20.08975 | 37058 ft | 476 kts | 129° |
| 2026-05-05 11:45 | 43.26513 | 20.16167 | 37066 ft | 476 kts | 129° |
| 2026-05-05 11:45 | 43.22450 | 20.23346 | 37082 ft | 476 kts | 128° |
| 2026-05-05 11:46 | 43.18378 | 20.30499 | 37081 ft | 476 kts | 128° |
| 2026-05-05 11:46 | 43.14304 | 20.37641 | 37080 ft | 476 kts | 129° |
| 2026-05-05 11:47 | 43.10224 | 20.44787 | 37060 ft | 477 kts | 128° |
| 2026-05-05 11:47 | 43.06135 | 20.51940 | 37073 ft | 478 kts | 128° |
| 2026-05-05 11:48 | 42.99910 | 20.62580 | 37081 ft | 477 kts | 134° |
| 2026-05-05 11:48 | 42.95141 | 20.68867 | 37080 ft | 477 kts | 137° |
| 2026-05-05 11:49 | 42.90348 | 20.75116 | 37096 ft | 476 kts | 137° |
| 2026-05-05 11:49 | 42.85564 | 20.81369 | 37106 ft | 476 kts | 137° |
| 2026-05-05 11:50 | 42.80780 | 20.87611 | 37099 ft | 476 kts | 136° |
| 2026-05-05 11:50 | 42.76020 | 20.93795 | 37095 ft | 476 kts | 137° |
| 2026-05-05 11:51 | 42.71223 | 21.00002 | 37093 ft | 476 kts | 137° |
| 2026-05-05 11:51 | 42.66416 | 21.06201 | 37090 ft | 476 kts | 137° |
| 2026-05-05 11:52 | 42.61611 | 21.12391 | 37077 ft | 476 kts | 137° |
| 2026-05-05 11:52 | 42.56798 | 21.18582 | 37078 ft | 477 kts | 137° |
| 2026-05-05 11:53 | 42.51975 | 21.24766 | 37079 ft | 478 kts | 137° |
| 2026-05-05 11:53 | 42.47140 | 21.30955 | 37082 ft | 478 kts | 137° |
| 2026-05-05 11:54 | 42.42304 | 21.37136 | 37080 ft | 478 kts | 137° |
| 2026-05-05 11:54 | 42.37460 | 21.43312 | 37085 ft | 479 kts | 137° |
| 2026-05-05 11:55 | 42.32603 | 21.49481 | 37075 ft | 479 kts | 137° |
| 2026-05-05 11:55 | 42.27741 | 21.55659 | 37081 ft | 480 kts | 137° |
| 2026-05-05 11:56 | 42.22869 | 21.61830 | 37086 ft | 480 kts | 137° |
| 2026-05-05 11:56 | 42.18057 | 21.68085 | 37071 ft | 481 kts | 135° |
| 2026-05-05 11:57 | 42.13319 | 21.74456 | 37080 ft | 481 kts | 135° |
| 2026-05-05 11:57 | 42.08577 | 21.80818 | 37075 ft | 481 kts | 135° |
| 2026-05-05 11:58 | 42.03804 | 21.87141 | 37075 ft | 482 kts | 135° |
| 2026-05-05 11:58 | 41.99012 | 21.93443 | 37075 ft | 482 kts | 135° |
| 2026-05-05 11:59 | 41.94219 | 21.99736 | 37078 ft | 482 kts | 135° |
| 2026-05-05 11:59 | 41.89431 | 22.06023 | 37080 ft | 482 kts | 135° |
| 2026-05-05 12:00 | 41.84672 | 22.12260 | 37080 ft | 482 kts | 135° |
| 2026-05-05 12:00 | 41.79867 | 22.18535 | 37079 ft | 483 kts | 135° |
| 2026-05-05 12:01 | 41.75054 | 22.24819 | 37077 ft | 483 kts | 135° |
| 2026-05-05 12:01 | 41.70236 | 22.31091 | 37079 ft | 483 kts | 135° |
| 2026-05-05 12:02 | 41.65405 | 22.37357 | 37080 ft | 484 kts | 135° |
| 2026-05-05 12:02 | 41.60570 | 22.43610 | 37079 ft | 484 kts | 135° |
| 2026-05-05 12:03 | 41.55733 | 22.49857 | 37075 ft | 484 kts | 135° |
| 2026-05-05 12:03 | 41.50888 | 22.56102 | 37069 ft | 484 kts | 135° |
| 2026-05-05 12:04 | 41.46036 | 22.62345 | 37062 ft | 485 kts | 135° |
| 2026-05-05 12:04 | 41.41181 | 22.68596 | 37064 ft | 485 kts | 135° |
| 2026-05-05 12:05 | 41.36311 | 22.74834 | 37059 ft | 486 kts | 135° |
| 2026-05-05 12:05 | 41.31582 | 22.81237 | 37075 ft | 485 kts | 129° |
| 2026-05-05 12:06 | 41.27184 | 22.88033 | 37051 ft | 484 kts | 129° |
| 2026-05-05 12:06 | 41.22791 | 22.94823 | 37050 ft | 485 kts | 129° |
| 2026-05-05 12:07 | 41.19139 | 23.00465 | 37046 ft | 485 kts | 129° |
| 2026-05-05 12:07 | 41.14737 | 23.07243 | 37046 ft | 485 kts | 129° |
| 2026-05-05 12:08 | 41.10320 | 23.14003 | 37057 ft | 484 kts | 129° |
| 2026-05-05 12:08 | 41.05906 | 23.20744 | 37054 ft | 484 kts | 129° |
| 2026-05-05 12:09 | 41.01496 | 23.27475 | 37048 ft | 484 kts | 129° |
| 2026-05-05 12:09 | 40.97082 | 23.34204 | 37033 ft | 484 kts | 129° |
| 2026-05-05 12:10 | 40.92664 | 23.40930 | 37030 ft | 484 kts | 129° |
| 2026-05-05 12:10 | 40.88239 | 23.47650 | 37052 ft | 485 kts | 129° |
| 2026-05-05 12:11 | 40.83811 | 23.54360 | 37051 ft | 484 kts | 129° |
| 2026-05-05 12:11 | 40.79375 | 23.61051 | 37050 ft | 484 kts | 130° |
| 2026-05-05 12:12 | 40.74960 | 23.67689 | 37061 ft | 484 kts | 129° |
| 2026-05-05 12:12 | 40.70521 | 23.74368 | 37050 ft | 484 kts | 129° |
| 2026-05-05 12:13 | 40.66076 | 23.81039 | 37074 ft | 485 kts | 130° |
| 2026-05-05 12:13 | 40.61627 | 23.87700 | 37070 ft | 485 kts | 130° |
| 2026-05-05 12:14 | 40.57168 | 23.94356 | 37075 ft | 485 kts | 130° |
| 2026-05-05 12:14 | 40.52705 | 24.01009 | 37080 ft | 485 kts | 130° |
| 2026-05-05 12:15 | 40.48247 | 24.07658 | 37098 ft | 485 kts | 130° |
| 2026-05-05 12:15 | 40.43779 | 24.14294 | 37093 ft | 485 kts | 130° |
| 2026-05-05 12:16 | 40.39307 | 24.20906 | 37088 ft | 484 kts | 130° |
| 2026-05-05 12:16 | 40.34827 | 24.27514 | 37077 ft | 485 kts | 130° |
| 2026-05-05 12:17 | 40.30344 | 24.34120 | 37083 ft | 485 kts | 130° |
| 2026-05-05 12:17 | 40.25889 | 24.40671 | 37102 ft | 485 kts | 130° |
| 2026-05-05 12:18 | 40.21397 | 24.47260 | 37107 ft | 485 kts | 130° |
| 2026-05-05 12:18 | 40.16908 | 24.53850 | 37092 ft | 485 kts | 130° |
| 2026-05-05 12:19 | 40.12410 | 24.60425 | 37093 ft | 485 kts | 130° |
| 2026-05-05 12:19 | 40.07902 | 24.66982 | 37092 ft | 485 kts | 130° |
| 2026-05-05 12:20 | 40.03398 | 24.73538 | 37091 ft | 485 kts | 130° |
| 2026-05-05 12:20 | 39.98894 | 24.80093 | 37086 ft | 485 kts | 130° |
| 2026-05-05 12:21 | 39.94383 | 24.86632 | 37087 ft | 485 kts | 130° |
| 2026-05-05 12:21 | 39.89867 | 24.93162 | 37096 ft | 485 kts | 130° |
| 2026-05-05 12:22 | 39.85342 | 24.99689 | 37091 ft | 485 kts | 130° |
| 2026-05-05 12:22 | 39.80818 | 25.06204 | 37103 ft | 485 kts | 130° |
| 2026-05-05 12:23 | 39.76293 | 25.12710 | 37085 ft | 485 kts | 131° |
| 2026-05-05 12:23 | 39.71759 | 25.19209 | 37085 ft | 485 kts | 131° |
| 2026-05-05 12:24 | 39.67221 | 25.25705 | 37088 ft | 486 kts | 131° |
| 2026-05-05 12:24 | 39.62711 | 25.32155 | 37090 ft | 486 kts | 131° |
| 2026-05-05 12:25 | 39.58165 | 25.38630 | 37106 ft | 485 kts | 131° |
| 2026-05-05 12:25 | 39.53612 | 25.45092 | 37102 ft | 485 kts | 131° |
| 2026-05-05 12:26 | 39.49062 | 25.51540 | 37090 ft | 485 kts | 131° |
| 2026-05-05 12:26 | 39.44511 | 25.57979 | 37090 ft | 485 kts | 131° |
| 2026-05-05 12:27 | 39.39957 | 25.64422 | 37107 ft | 485 kts | 131° |
| 2026-05-05 12:27 | 39.35402 | 25.70849 | 37102 ft | 485 kts | 131° |
| 2026-05-05 12:28 | 39.30846 | 25.77262 | 37101 ft | 484 kts | 131° |
| 2026-05-05 12:28 | 39.26288 | 25.83664 | 37098 ft | 484 kts | 131° |
| 2026-05-05 12:29 | 39.21726 | 25.90052 | 37094 ft | 484 kts | 131° |
| 2026-05-05 12:29 | 39.17162 | 25.96432 | 37090 ft | 484 kts | 131° |
| 2026-05-05 12:30 | 39.12595 | 26.02804 | 37092 ft | 484 kts | 131° |
| 2026-05-05 12:30 | 39.08028 | 26.09164 | 37091 ft | 483 kts | 131° |
| 2026-05-05 12:31 | 39.03457 | 26.15511 | 37082 ft | 484 kts | 131° |
| 2026-05-05 12:31 | 38.98885 | 26.21853 | 37080 ft | 483 kts | 132° |
| 2026-05-05 12:32 | 38.94316 | 26.28190 | 37099 ft | 483 kts | 132° |
| 2026-05-05 12:32 | 38.89736 | 26.34507 | 37096 ft | 483 kts | 132° |
| 2026-05-05 12:33 | 38.85441 | 26.41097 | 37080 ft | 480 kts | 120° |
| 2026-05-05 12:33 | 38.82774 | 26.48858 | 37077 ft | 474 kts | 101° |
| 2026-05-05 12:34 | 38.81642 | 26.57128 | 37086 ft | 471 kts | 95° |
| 2026-05-05 12:34 | 38.80622 | 26.65423 | 37082 ft | 471 kts | 96° |
| 2026-05-05 12:35 | 38.79594 | 26.73718 | 37087 ft | 471 kts | 96° |
| 2026-05-05 12:35 | 38.78552 | 26.82010 | 37077 ft | 471 kts | 96° |
| 2026-05-05 12:36 | 38.77501 | 26.90294 | 37080 ft | 471 kts | 97° |
| 2026-05-05 12:36 | 38.75411 | 26.98213 | 37069 ft | 477 kts | 116° |
| 2026-05-05 12:37 | 38.71648 | 27.05220 | 37055 ft | 478 kts | 126° |
| 2026-05-05 12:37 | 38.67638 | 27.12023 | 37037 ft | 479 kts | 126° |
| 2026-05-05 12:38 | 38.63628 | 27.18838 | 37052 ft | 480 kts | 126° |
| 2026-05-05 12:38 | 38.59607 | 27.25651 | 37040 ft | 480 kts | 126° |
| 2026-05-05 12:39 | 38.55574 | 27.32453 | 37034 ft | 480 kts | 126° |
| 2026-05-05 12:39 | 38.51541 | 27.39263 | 37031 ft | 481 kts | 126° |
| 2026-05-05 12:40 | 38.47501 | 27.46067 | 37036 ft | 481 kts | 126° |
| 2026-05-05 12:40 | 38.43450 | 27.52864 | 37047 ft | 481 kts | 126° |
| 2026-05-05 12:41 | 38.39398 | 27.59654 | 37049 ft | 481 kts | 126° |
| 2026-05-05 12:41 | 38.35345 | 27.66432 | 37048 ft | 481 kts | 126° |
| 2026-05-05 12:42 | 38.31284 | 27.73205 | 37030 ft | 481 kts | 126° |
| 2026-05-05 12:42 | 38.27127 | 27.79879 | 37022 ft | 482 kts | 133° |
| 2026-05-05 12:43 | 38.21942 | 27.85258 | 37015 ft | 482 kts | 146° |
| 2026-05-05 12:43 | 38.16453 | 27.90164 | 36996 ft | 483 kts | 145° |
| 2026-05-05 12:44 | 38.13701 | 27.92633 | 36749 ft | 484 kts | 145° |
| 2026-05-05 12:44 | 38.10954 | 27.95101 | 36484 ft | 483 kts | 145° |
| 2026-05-05 12:44 | 38.08209 | 27.97563 | 36229 ft | 483 kts | 145° |
| 2026-05-05 12:44 | 38.05458 | 28.00026 | 35826 ft | 485 kts | 146° |
| 2026-05-05 12:45 | 38.02680 | 28.02510 | 34804 ft | 493 kts | 145° |
| 2026-05-05 12:45 | 37.99863 | 28.05023 | 34053 ft | 495 kts | 146° |
| 2026-05-05 12:45 | 37.97093 | 28.07491 | 33428 ft | 491 kts | 146° |
| 2026-05-05 12:45 | 37.94308 | 28.09971 | 32791 ft | 488 kts | 146° |
| 2026-05-05 12:46 | 37.91544 | 28.12433 | 32148 ft | 484 kts | 146° |
| 2026-05-05 12:46 | 37.88802 | 28.14869 | 31523 ft | 480 kts | 147° |
| 2026-05-05 12:46 | 37.86081 | 28.17283 | 30905 ft | 475 kts | 147° |
| 2026-05-05 12:46 | 37.83385 | 28.19672 | 30302 ft | 472 kts | 147° |
| 2026-05-05 12:47 | 37.80706 | 28.22043 | 29676 ft | 467 kts | 147° |
| 2026-05-05 12:47 | 37.78059 | 28.24383 | 29038 ft | 462 kts | 147° |
| 2026-05-05 12:47 | 37.75437 | 28.26701 | 28487 ft | 457 kts | 147° |
| 2026-05-05 12:47 | 37.72851 | 28.28989 | 27916 ft | 452 kts | 147° |
| 2026-05-05 12:48 | 37.70288 | 28.31253 | 27382 ft | 447 kts | 147° |
| 2026-05-05 12:48 | 37.67757 | 28.33487 | 26846 ft | 442 kts | 147° |
| 2026-05-05 12:48 | 37.65249 | 28.35699 | 26328 ft | 437 kts | 147° |
| 2026-05-05 12:48 | 37.62771 | 28.37884 | 25818 ft | 432 kts | 147° |
| 2026-05-05 12:49 | 37.60318 | 28.40044 | 25303 ft | 428 kts | 147° |
| 2026-05-05 12:49 | 37.57883 | 28.42185 | 24789 ft | 425 kts | 147° |
| 2026-05-05 12:49 | 37.55472 | 28.44303 | 24266 ft | 421 kts | 147° |
| 2026-05-05 12:49 | 37.53075 | 28.46408 | 23736 ft | 419 kts | 147° |
| 2026-05-05 12:50 | 37.50680 | 28.48480 | 23132 ft | 415 kts | 150° |
| 2026-05-05 12:50 | 37.48131 | 28.50105 | 22644 ft | 407 kts | 162° |
| 2026-05-05 12:50 | 37.45450 | 28.51123 | 22154 ft | 400 kts | 169° |
| 2026-05-05 12:50 | 37.42759 | 28.51955 | 21668 ft | 397 kts | 169° |
| 2026-05-05 12:51 | 37.40089 | 28.52783 | 21180 ft | 395 kts | 169° |
| 2026-05-05 12:51 | 37.37429 | 28.53608 | 20693 ft | 393 kts | 169° |
| 2026-05-05 12:51 | 37.34783 | 28.54431 | 20212 ft | 391 kts | 169° |
| 2026-05-05 12:51 | 37.32152 | 28.55253 | 19730 ft | 389 kts | 169° |
| 2026-05-05 12:52 | 37.29533 | 28.56069 | 19247 ft | 387 kts | 168° |
| 2026-05-05 12:52 | 37.26923 | 28.56881 | 18760 ft | 386 kts | 168° |
| 2026-05-05 12:52 | 37.24319 | 28.57692 | 18285 ft | 385 kts | 168° |
| 2026-05-05 12:52 | 37.21719 | 28.58500 | 17753 ft | 384 kts | 168° |
| 2026-05-05 12:53 | 37.19140 | 28.59297 | 17233 ft | 376 kts | 168° |
| 2026-05-05 12:53 | 37.16658 | 28.60091 | 16853 ft | 359 kts | 164° |
| 2026-05-05 12:53 | 37.14535 | 28.61457 | 16600 ft | 343 kts | 141° |
| 2026-05-05 12:53 | 37.13021 | 28.63690 | 16219 ft | 335 kts | 116° |
| 2026-05-05 12:54 | 37.12450 | 28.69207 | 15534 ft | 319 kts | 76° |
| 2026-05-05 12:54 | 37.12839 | 28.71953 | 15204 ft | 319 kts | 76° |
| 2026-05-05 12:54 | 37.13229 | 28.74670 | 14935 ft | 316 kts | 76° |
| 2026-05-05 12:55 | 37.13616 | 28.77371 | 14614 ft | 313 kts | 76° |
| 2026-05-05 12:55 | 37.13994 | 28.80040 | 14085 ft | 309 kts | 76° |
| 2026-05-05 12:55 | 37.14365 | 28.82679 | 13518 ft | 306 kts | 77° |
| 2026-05-05 12:55 | 37.14731 | 28.85288 | 12916 ft | 302 kts | 77° |
| 2026-05-05 12:56 | 37.15091 | 28.87860 | 12366 ft | 297 kts | 76° |
| 2026-05-05 12:56 | 37.15443 | 28.90380 | 11886 ft | 291 kts | 76° |
| 2026-05-05 12:56 | 37.15562 | 28.92910 | 11315 ft | 292 kts | 94° |
| 2026-05-05 12:56 | 37.15086 | 28.95364 | 10876 ft | 289 kts | 110° |
| 2026-05-05 12:57 | 37.14078 | 28.97542 | 10447 ft | 290 kts | 128° |
| 2026-05-05 12:57 | 37.13138 | 28.98771 | 10159 ft | 289 kts | 137° |
| 2026-05-05 12:57 | 37.11639 | 29.00437 | 9705 ft | 287 kts | 137° |
| 2026-05-05 12:57 | 37.10151 | 29.02096 | 9262 ft | 285 kts | 137° |
| 2026-05-05 12:58 | 37.08691 | 29.03718 | 8895 ft | 281 kts | 140° |
| 2026-05-05 12:58 | 37.07038 | 29.04877 | 8728 ft | 268 kts | 162° |
| 2026-05-05 12:58 | 37.05239 | 29.05134 | 8589 ft | 254 kts | 185° |
| 2026-05-05 12:58 | 37.03535 | 29.04571 | 8025 ft | 257 kts | 208° |
| 2026-05-05 12:59 | 37.01997 | 29.03447 | 7492 ft | 256 kts | 212° |
| 2026-05-05 12:59 | 37.00472 | 29.02314 | 6983 ft | 254 kts | 212° |
| 2026-05-05 12:59 | 36.98960 | 29.01198 | 6468 ft | 251 kts | 212° |
| 2026-05-05 13:00 | 36.96025 | 28.99049 | 5604 ft | 235 kts | 212° |
| 2026-05-05 13:00 | 36.94643 | 28.98041 | 5240 ft | 226 kts | 211° |
| 2026-05-05 13:01 | 36.91057 | 28.94436 | 4149 ft | 221 kts | 223° |
| 2026-05-05 13:01 | 36.89884 | 28.93185 | 3786 ft | 223 kts | 223° |
| 2026-05-05 13:01 | 36.88703 | 28.91935 | 3411 ft | 222 kts | 224° |
| 2026-05-05 13:01 | 36.87546 | 28.90709 | 3298 ft | 215 kts | 225° |
| 2026-05-05 13:02 | 36.86434 | 28.89529 | 3263 ft | 203 kts | 223° |
| 2026-05-05 13:02 | 36.85344 | 28.88497 | 3144 ft | 192 kts | 212° |
| 2026-05-05 13:02 | 36.84177 | 28.87653 | 2800 ft | 193 kts | 212° |
| 2026-05-05 13:02 | 36.83039 | 28.86822 | 2492 ft | 186 kts | 211° |
| 2026-05-05 13:03 | 36.81955 | 28.86030 | 2182 ft | 172 kts | 212° |
| 2026-05-05 13:03 | 36.80974 | 28.85316 | 1954 ft | 157 kts | 211° |
| 2026-05-05 13:03 | 36.80054 | 28.84644 | 1730 ft | 149 kts | 212° |
| 2026-05-05 13:03 | 36.79186 | 28.84012 | 1482 ft | 143 kts | 212° |
| 2026-05-05 13:04 | 36.78414 | 28.83266 | 1271 ft | 140 kts | 228° |
| 2026-05-05 13:04 | 36.77764 | 28.82375 | 1093 ft | 134 kts | 230° |
| 2026-05-05 13:04 | 36.77084 | 28.81610 | 916 ft | 130 kts | 219° |
| 2026-05-05 13:04 | 36.76303 | 28.81077 | 734 ft | 128 kts | 207° |
| 2026-05-05 13:05 | 36.75479 | 28.80691 | 591 ft | 128 kts | 201° |
| 2026-05-05 13:05 | 36.74633 | 28.80380 | 437 ft | 129 kts | 200° |
| 2026-05-05 13:05 | 36.73788 | 28.80097 | 277 ft | 126 kts | 198° |
| 2026-05-05 13:05 | 36.72948 | 28.79805 | 126 ft | 125 kts | 200° |
| 2026-05-05 13:06 | 36.72117 | 28.79524 | 15 ft | 117 kts | 194° |
| 2026-05-05 13:06 | 36.71476 | 28.79304 | 13 ft | 71 kts | 195° |
| 2026-05-05 13:06 | 36.71156 | 28.79197 | 13 ft | 33 kts | 195° |
| 2026-05-05 13:06 | 36.70945 | 28.79124 | 13 ft | 30 kts | 195° |
| 2026-05-05 13:07 | 36.70758 | 28.79058 | 13 ft | 25 kts | 199° |
| 2026-05-05 13:07 | 36.70618 | 28.78932 | 13 ft | 25 kts | 219° |
| 2026-05-05 13:07 | 36.70606 | 28.78810 | 13 ft | 18 kts | 346° |
| 2026-05-05 13:07 | 36.70753 | 28.78845 | 13 ft | 22 kts | 15° |
| 2026-05-05 13:08 | 36.70912 | 28.78899 | 13 ft | 24 kts | 15° |
| 2026-05-05 13:08 | 36.71068 | 28.78953 | 13 ft | 25 kts | 15° |
| 2026-05-05 13:08 | 36.71266 | 28.79021 | 13 ft | 27 kts | 16° |
| 2026-05-05 13:08 | 36.71329 | 28.78994 | 13 ft | 6 kts | 282° |
| 2026-05-05 13:09 | 36.71353 | 28.78868 | 13 ft | 16 kts | 284° |
| 2026-05-05 13:09 | 36.71451 | 28.78861 | 13 ft | 22 kts | 15° |
| 2026-05-05 13:09 | 36.71628 | 28.78922 | 12 ft | 28 kts | 15° |
| 2026-05-05 13:09 | 36.71824 | 28.78989 | 12 ft | 30 kts | 15° |
| 2026-05-05 13:10 | 36.72034 | 28.79060 | 12 ft | 33 kts | 15° |
| 2026-05-05 13:10 | 36.72187 | 28.79114 | 12 ft | 10 kts | 15° |
| 2026-05-05 13:10 | 36.72219 | 28.79067 | 12 ft | 8 kts | 286° |
| 2026-05-05 13:10 | 36.72224 | 28.79045 | 12 ft | 0 kts | 285° |
| 2026-05-05 13:11 | 36.72224 | 28.79044 | 12 ft | 0 kts | 285° |